Startpagina
METAR-TAF:

METAR-TAF

Vliegvelden :

Nörvenich, Duitsland

breedte: 50-50N, lengte: 006-40E, hoogte: 118 m

Actueel weer

Dit bericht is 17 minuten geleden gemaakt, om 18:20 UTC
Wind 4 kt uit het zuidzuidoosten
Temperatuur 16°C
Vochtigheid 39%
Druk 1026 hPa
Zicht 10 km of meer
Weinig wolken op 33000 ft

METAR: ETNN 221820Z 16004KT 9999 FEW330 16/02 Q1026 BLU+

Tijdstip: 19:37 (18:37 UTC)

Verwachting

Dit bericht is 7 uur en het 22 minuten geleden gemaakt, om 11:15 UTC
Verwachting geldig van 22 om 11 UTC tot 22 om 18 UTC
Wind 5 kt uit het oostzuidoosten
Zicht: 1115 m
Verspreide wolken op 30000 ft

TAF: ETNN 221115Z 2211/2218 12005KT 9999 NSW SCT300 CANCEL 1115 BY ETGL

Waarnemingen en weersverwachtingen van meer dan 4000 vliegvelden (METAR en TAF).

De beschikbare stations zijn de gele en rode punten op de kaart.

Ga met uw muis naar het station om de naam te zien.

Klik dan om waarnemingen en weersverwachtingen te zien.

kaart wijzigen: klik op de groene knoppen met een zwart kruis om in te zoomen, op de groene knop met een streepje om uit te zoomen of op de groene pijlen voor aangrenzende kaarten.


METAR-TAF: